sensor_id;sensor_type;location;lat;lon;timestamp;temperature;humidity
68691;DHT22;55675;49.588;8.640;2023-06-10T00:01:41;23.00;48.50
68691;DHT22;55675;49.588;8.640;2023-06-10T00:04:07;23.10;48.90
68691;DHT22;55675;49.588;8.640;2023-06-10T00:06:32;23.10;48.60
68691;DHT22;55675;49.588;8.640;2023-06-10T00:09:05;23.00;48.30
68691;DHT22;55675;49.588;8.640;2023-06-10T00:11:33;23.00;48.30
68691;DHT22;55675;49.588;8.640;2023-06-10T00:13:59;23.00;48.20
68691;DHT22;55675;49.588;8.640;2023-06-10T00:16:25;23.00;48.10
68691;DHT22;55675;49.588;8.640;2023-06-10T00:18:51;23.00;48.30
68691;DHT22;55675;49.588;8.640;2023-06-10T00:21:17;22.90;48.40
68691;DHT22;55675;49.588;8.640;2023-06-10T00:23:42;22.90;48.20
68691;DHT22;55675;49.588;8.640;2023-06-10T00:26:09;22.90;48.20
68691;DHT22;55675;49.588;8.640;2023-06-10T00:28:34;22.90;48.40
68691;DHT22;55675;49.588;8.640;2023-06-10T00:31:00;22.80;48.30
68691;DHT22;55675;49.588;8.640;2023-06-10T00:33:25;22.80;48.50
68691;DHT22;55675;49.588;8.640;2023-06-10T00:35:51;22.80;48.70
68691;DHT22;55675;49.588;8.640;2023-06-10T00:38:17;22.80;48.70
68691;DHT22;55675;49.588;8.640;2023-06-10T00:40:42;22.80;49.10
68691;DHT22;55675;49.588;8.640;2023-06-10T00:43:08;22.70;48.90
68691;DHT22;55675;49.588;8.640;2023-06-10T00:45:34;22.70;48.80
68691;DHT22;55675;49.588;8.640;2023-06-10T00:48:00;22.70;49.10
68691;DHT22;55675;49.588;8.640;2023-06-10T00:50:26;22.60;49.70
68691;DHT22;55675;49.588;8.640;2023-06-10T00:52:53;22.60;49.90
68691;DHT22;55675;49.588;8.640;2023-06-10T00:55:19;22.60;49.70
68691;DHT22;55675;49.588;8.640;2023-06-10T00:57:46;22.60;49.30
68691;DHT22;55675;49.588;8.640;2023-06-10T01:00:14;22.50;49.30
68691;DHT22;55675;49.588;8.640;2023-06-10T01:02:40;22.50;50.20
68691;DHT22;55675;49.588;8.640;2023-06-10T01:05:06;22.50;50.50
68691;DHT22;55675;49.588;8.640;2023-06-10T01:10:36;22.40;50.20
68691;DHT22;55675;49.588;8.640;2023-06-10T01:13:03;22.30;50.50
68691;DHT22;55675;49.588;8.640;2023-06-10T01:15:34;22.30;50.80
68691;DHT22;55675;49.588;8.640;2023-06-10T01:18:05;22.20;51.00
68691;DHT22;55675;49.588;8.640;2023-06-10T01:20:35;22.20;51.10
68691;DHT22;55675;49.588;8.640;2023-06-10T01:23:02;22.10;51.70
68691;DHT22;55675;49.588;8.640;2023-06-10T01:25:29;22.00;51.60
68691;DHT22;55675;49.588;8.640;2023-06-10T01:28:10;22.00;51.90
68691;DHT22;55675;49.588;8.640;2023-06-10T01:33:17;21.90;51.90
68691;DHT22;55675;49.588;8.640;2023-06-10T01:35:43;21.80;52.80
68691;DHT22;55675;49.588;8.640;2023-06-10T01:38:10;21.80;52.90
68691;DHT22;55675;49.588;8.640;2023-06-10T01:40:38;21.70;52.70
68691;DHT22;55675;49.588;8.640;2023-06-10T01:43:04;21.70;52.70
68691;DHT22;55675;49.588;8.640;2023-06-10T01:45:29;21.70;52.70
68691;DHT22;55675;49.588;8.640;2023-06-10T01:47:55;21.60;52.90
68691;DHT22;55675;49.588;8.640;2023-06-10T01:50:20;21.60;53.20
68691;DHT22;55675;49.588;8.640;2023-06-10T01:52:46;21.50;53.40
68691;DHT22;55675;49.588;8.640;2023-06-10T01:55:12;21.50;53.40
68691;DHT22;55675;49.588;8.640;2023-06-10T01:57:37;21.40;53.40
68691;DHT22;55675;49.588;8.640;2023-06-10T02:00:03;21.40;53.50
68691;DHT22;55675;49.588;8.640;2023-06-10T02:02:29;21.30;53.50
68691;DHT22;55675;49.588;8.640;2023-06-10T02:04:54;21.30;53.60
68691;DHT22;55675;49.588;8.640;2023-06-10T02:07:20;21.20;53.70
68691;DHT22;55675;49.588;8.640;2023-06-10T02:09:46;21.20;53.70
68691;DHT22;55675;49.588;8.640;2023-06-10T02:12:11;21.20;54.00
68691;DHT22;55675;49.588;8.640;2023-06-10T02:14:37;21.20;54.10
68691;DHT22;55675;49.588;8.640;2023-06-10T02:17:02;21.10;54.00
68691;DHT22;55675;49.588;8.640;2023-06-10T02:19:28;21.10;54.00
68691;DHT22;55675;49.588;8.640;2023-06-10T02:21:54;21.00;54.20
68691;DHT22;55675;49.588;8.640;2023-06-10T02:24:19;21.00;53.90
68691;DHT22;55675;49.588;8.640;2023-06-10T02:26:45;21.00;54.00
68691;DHT22;55675;49.588;8.640;2023-06-10T02:29:11;20.90;53.90
68691;DHT22;55675;49.588;8.640;2023-06-10T02:31:37;20.90;54.70
68691;DHT22;55675;49.588;8.640;2023-06-10T02:34:03;20.90;54.80
68691;DHT22;55675;49.588;8.640;2023-06-10T02:36:29;20.80;55.00
68691;DHT22;55675;49.588;8.640;2023-06-10T02:38:54;20.80;55.20
68691;DHT22;55675;49.588;8.640;2023-06-10T02:41:21;20.70;55.30
68691;DHT22;55675;49.588;8.640;2023-06-10T02:43:47;20.60;55.20
68691;DHT22;55675;49.588;8.640;2023-06-10T02:46:13;20.60;55.60
68691;DHT22;55675;49.588;8.640;2023-06-10T02:48:45;20.60;56.00
68691;DHT22;55675;49.588;8.640;2023-06-10T02:51:11;20.50;56.30
68691;DHT22;55675;49.588;8.640;2023-06-10T02:53:37;20.40;56.50
68691;DHT22;55675;49.588;8.640;2023-06-10T02:56:03;20.50;56.30
68691;DHT22;55675;49.588;8.640;2023-06-10T02:58:28;20.40;56.10
68691;DHT22;55675;49.588;8.640;2023-06-10T03:00:54;20.40;56.90
68691;DHT22;55675;49.588;8.640;2023-06-10T03:03:20;20.30;56.90
68691;DHT22;55675;49.588;8.640;2023-06-10T03:05:47;20.30;57.40
68691;DHT22;55675;49.588;8.640;2023-06-10T03:08:13;20.30;57.40
68691;DHT22;55675;49.588;8.640;2023-06-10T03:10:39;20.20;57.80
68691;DHT22;55675;49.588;8.640;2023-06-10T03:13:05;20.10;57.80
68691;DHT22;55675;49.588;8.640;2023-06-10T03:15:30;20.10;57.80
68691;DHT22;55675;49.588;8.640;2023-06-10T03:17:58;20.00;58.00
68691;DHT22;55675;49.588;8.640;2023-06-10T03:20:25;20.00;58.30
68691;DHT22;55675;49.588;8.640;2023-06-10T03:22:51;20.00;58.40
68691;DHT22;55675;49.588;8.640;2023-06-10T03:25:16;19.90;58.60
68691;DHT22;55675;49.588;8.640;2023-06-10T03:27:42;19.90;58.80
68691;DHT22;55675;49.588;8.640;2023-06-10T03:30:08;19.90;58.90
68691;DHT22;55675;49.588;8.640;2023-06-10T03:32:34;19.80;59.00
68691;DHT22;55675;49.588;8.640;2023-06-10T03:35:01;19.80;59.20
68691;DHT22;55675;49.588;8.640;2023-06-10T03:37:26;19.70;59.30
68691;DHT22;55675;49.588;8.640;2023-06-10T03:39:52;19.70;59.60
68691;DHT22;55675;49.588;8.640;2023-06-10T03:42:17;19.70;59.90
68691;DHT22;55675;49.588;8.640;2023-06-10T03:44:43;19.70;59.90
68691;DHT22;55675;49.588;8.640;2023-06-10T03:47:08;19.70;59.90
68691;DHT22;55675;49.588;8.640;2023-06-10T03:49:34;19.70;60.00
68691;DHT22;55675;49.588;8.640;2023-06-10T03:52:02;19.70;61.50
68691;DHT22;55675;49.588;8.640;2023-06-10T03:54:27;19.60;61.10
68691;DHT22;55675;49.588;8.640;2023-06-10T03:56:53;19.60;61.50
68691;DHT22;55675;49.588;8.640;2023-06-10T03:59:20;19.60;61.90
68691;DHT22;55675;49.588;8.640;2023-06-10T04:01:45;19.50;61.60
68691;DHT22;55675;49.588;8.640;2023-06-10T04:04:14;19.50;61.80
68691;DHT22;55675;49.588;8.640;2023-06-10T04:06:41;19.50;62.00
68691;DHT22;55675;49.588;8.640;2023-06-10T04:09:09;19.50;61.80
68691;DHT22;55675;49.588;8.640;2023-06-10T04:11:35;19.50;62.00
68691;DHT22;55675;49.588;8.640;2023-06-10T04:14:01;19.60;62.50
68691;DHT22;55675;49.588;8.640;2023-06-10T04:16:27;19.60;63.50
68691;DHT22;55675;49.588;8.640;2023-06-10T04:18:52;19.70;63.50
68691;DHT22;55675;49.588;8.640;2023-06-10T04:21:18;19.70;63.20
68691;DHT22;55675;49.588;8.640;2023-06-10T04:23:44;19.80;63.70
68691;DHT22;55675;49.588;8.640;2023-06-10T04:26:09;19.90;64.00
68691;DHT22;55675;49.588;8.640;2023-06-10T04:28:37;20.00;63.90
68691;DHT22;55675;49.588;8.640;2023-06-10T04:31:02;20.00;63.70
68691;DHT22;55675;49.588;8.640;2023-06-10T04:33:30;20.10;63.20
68691;DHT22;55675;49.588;8.640;2023-06-10T04:35:56;20.20;63.30
68691;DHT22;55675;49.588;8.640;2023-06-10T04:38:21;20.20;63.40
68691;DHT22;55675;49.588;8.640;2023-06-10T04:40:47;20.20;62.90
68691;DHT22;55675;49.588;8.640;2023-06-10T04:43:13;20.20;62.90
68691;DHT22;55675;49.588;8.640;2023-06-10T04:45:38;20.30;62.90
68691;DHT22;55675;49.588;8.640;2023-06-10T04:48:04;20.40;63.00
68691;DHT22;55675;49.588;8.640;2023-06-10T04:50:30;20.50;62.90
68691;DHT22;55675;49.588;8.640;2023-06-10T04:52:57;20.60;63.50
68691;DHT22;55675;49.588;8.640;2023-06-10T04:55:23;20.60;63.20
68691;DHT22;55675;49.588;8.640;2023-06-10T04:57:48;20.70;63.30
68691;DHT22;55675;49.588;8.640;2023-06-10T05:00:14;20.70;63.70
68691;DHT22;55675;49.588;8.640;2023-06-10T05:02:40;20.80;64.10
68691;DHT22;55675;49.588;8.640;2023-06-10T05:05:05;20.90;64.00
68691;DHT22;55675;49.588;8.640;2023-06-10T05:07:31;20.90;63.80
68691;DHT22;55675;49.588;8.640;2023-06-10T05:09:57;21.00;63.50
68691;DHT22;55675;49.588;8.640;2023-06-10T05:12:22;21.10;63.20
68691;DHT22;55675;49.588;8.640;2023-06-10T05:14:48;21.20;62.90
68691;DHT22;55675;49.588;8.640;2023-06-10T05:17:13;21.20;62.30
68691;DHT22;55675;49.588;8.640;2023-06-10T05:19:39;21.30;61.90
68691;DHT22;55675;49.588;8.640;2023-06-10T05:22:04;21.40;61.20
68691;DHT22;55675;49.588;8.640;2023-06-10T05:24:30;21.40;60.70
68691;DHT22;55675;49.588;8.640;2023-06-10T05:26:55;21.50;60.70
68691;DHT22;55675;49.588;8.640;2023-06-10T05:29:21;21.60;60.20
68691;DHT22;55675;49.588;8.640;2023-06-10T05:31:47;21.60;61.10
68691;DHT22;55675;49.588;8.640;2023-06-10T05:34:12;21.60;62.20
68691;DHT22;55675;49.588;8.640;2023-06-10T05:36:38;21.50;62.50
68691;DHT22;55675;49.588;8.640;2023-06-10T05:39:03;21.50;62.70
68691;DHT22;55675;49.588;8.640;2023-06-10T05:41:29;21.40;63.00
68691;DHT22;55675;49.588;8.640;2023-06-10T05:43:55;21.50;62.70
68691;DHT22;55675;49.588;8.640;2023-06-10T05:46:21;21.50;62.50
68691;DHT22;55675;49.588;8.640;2023-06-10T05:48:46;21.50;63.40
68691;DHT22;55675;49.588;8.640;2023-06-10T05:51:12;21.50;63.10
68691;DHT22;55675;49.588;8.640;2023-06-10T05:53:37;21.60;62.80
68691;DHT22;55675;49.588;8.640;2023-06-10T05:56:03;21.70;62.30
68691;DHT22;55675;49.588;8.640;2023-06-10T05:58:29;21.90;62.20
68691;DHT22;55675;49.588;8.640;2023-06-10T06:00:55;22.00;62.00
68691;DHT22;55675;49.588;8.640;2023-06-10T06:03:20;22.10;61.80
68691;DHT22;55675;49.588;8.640;2023-06-10T06:05:46;22.20;61.70
68691;DHT22;55675;49.588;8.640;2023-06-10T06:08:11;22.30;62.50
68691;DHT22;55675;49.588;8.640;2023-06-10T06:10:38;22.40;61.50
68691;DHT22;55675;49.588;8.640;2023-06-10T06:13:04;22.40;60.60
68691;DHT22;55675;49.588;8.640;2023-06-10T06:15:29;22.40;60.40
68691;DHT22;55675;49.588;8.640;2023-06-10T06:17:55;22.50;61.00
68691;DHT22;55675;49.588;8.640;2023-06-10T06:20:22;22.60;61.00
68691;DHT22;55675;49.588;8.640;2023-06-10T06:22:47;22.60;62.90
68691;DHT22;55675;49.588;8.640;2023-06-10T06:25:13;22.70;62.30
68691;DHT22;55675;49.588;8.640;2023-06-10T06:27:39;22.80;62.60
68691;DHT22;55675;49.588;8.640;2023-06-10T06:30:05;22.90;61.60
68691;DHT22;55675;49.588;8.640;2023-06-10T06:32:30;23.00;61.00
68691;DHT22;55675;49.588;8.640;2023-06-10T06:34:56;23.10;60.70
68691;DHT22;55675;49.588;8.640;2023-06-10T06:37:25;23.20;60.30
68691;DHT22;55675;49.588;8.640;2023-06-10T06:39:51;23.30;57.70
68691;DHT22;55675;49.588;8.640;2023-06-10T06:42:17;23.40;58.30
68691;DHT22;55675;49.588;8.640;2023-06-10T06:44:44;23.60;58.40
68691;DHT22;55675;49.588;8.640;2023-06-10T06:47:09;23.70;57.00
68691;DHT22;55675;49.588;8.640;2023-06-10T06:49:35;23.80;56.30
68691;DHT22;55675;49.588;8.640;2023-06-10T06:52:01;23.90;55.10
68691;DHT22;55675;49.588;8.640;2023-06-10T06:54:26;24.10;55.20
68691;DHT22;55675;49.588;8.640;2023-06-10T06:56:52;24.20;54.30
68691;DHT22;55675;49.588;8.640;2023-06-10T06:59:17;24.30;53.60
68691;DHT22;55675;49.588;8.640;2023-06-10T07:01:44;24.30;53.10
68691;DHT22;55675;49.588;8.640;2023-06-10T07:04:10;24.50;53.10
68691;DHT22;55675;49.588;8.640;2023-06-10T07:06:36;24.60;53.00
68691;DHT22;55675;49.588;8.640;2023-06-10T07:09:01;24.60;52.10
68691;DHT22;55675;49.588;8.640;2023-06-10T07:11:27;24.70;51.90
68691;DHT22;55675;49.588;8.640;2023-06-10T07:13:52;24.80;51.70
68691;DHT22;55675;49.588;8.640;2023-06-10T07:16:18;24.90;51.80
68691;DHT22;55675;49.588;8.640;2023-06-10T07:18:46;25.00;51.90
68691;DHT22;55675;49.588;8.640;2023-06-10T07:21:11;25.10;51.20
68691;DHT22;55675;49.588;8.640;2023-06-10T07:23:37;25.20;51.20
68691;DHT22;55675;49.588;8.640;2023-06-10T07:26:02;25.30;50.80
68691;DHT22;55675;49.588;8.640;2023-06-10T07:28:28;25.40;50.40
68691;DHT22;55675;49.588;8.640;2023-06-10T07:30:53;25.50;50.30
68691;DHT22;55675;49.588;8.640;2023-06-10T07:33:19;25.60;50.00
68691;DHT22;55675;49.588;8.640;2023-06-10T07:35:45;25.70;49.90
68691;DHT22;55675;49.588;8.640;2023-06-10T07:38:10;25.80;49.50
68691;DHT22;55675;49.588;8.640;2023-06-10T07:40:36;25.80;48.80
68691;DHT22;55675;49.588;8.640;2023-06-10T07:43:01;25.90;48.60
68691;DHT22;55675;49.588;8.640;2023-06-10T07:45:27;26.00;48.40
68691;DHT22;55675;49.588;8.640;2023-06-10T07:47:52;26.00;48.20
68691;DHT22;55675;49.588;8.640;2023-06-10T07:50:18;26.10;47.80
68691;DHT22;55675;49.588;8.640;2023-06-10T07:52:43;26.20;47.90
68691;DHT22;55675;49.588;8.640;2023-06-10T07:55:09;26.20;47.90
68691;DHT22;55675;49.588;8.640;2023-06-10T07:57:35;26.20;47.50
68691;DHT22;55675;49.588;8.640;2023-06-10T08:00:03;26.40;47.80
68691;DHT22;55675;49.588;8.640;2023-06-10T08:02:29;26.40;47.20
68691;DHT22;55675;49.588;8.640;2023-06-10T08:04:55;26.50;47.00
68691;DHT22;55675;49.588;8.640;2023-06-10T08:07:20;26.60;46.90
68691;DHT22;55675;49.588;8.640;2023-06-10T08:09:47;26.60;46.80
68691;DHT22;55675;49.588;8.640;2023-06-10T08:12:13;26.70;46.90
68691;DHT22;55675;49.588;8.640;2023-06-10T08:14:39;26.70;46.70
68691;DHT22;55675;49.588;8.640;2023-06-10T08:17:05;26.80;46.80
68691;DHT22;55675;49.588;8.640;2023-06-10T08:19:31;26.80;46.90
68691;DHT22;55675;49.588;8.640;2023-06-10T08:21:57;26.90;46.20
68691;DHT22;55675;49.588;8.640;2023-06-10T08:24:22;26.90;46.40
68691;DHT22;55675;49.588;8.640;2023-06-10T08:26:48;27.00;46.00
68691;DHT22;55675;49.588;8.640;2023-06-10T08:29:14;27.10;46.20
68691;DHT22;55675;49.588;8.640;2023-06-10T08:31:42;27.10;46.10
68691;DHT22;55675;49.588;8.640;2023-06-10T08:34:08;27.10;45.60
68691;DHT22;55675;49.588;8.640;2023-06-10T08:36:33;27.20;45.00
68691;DHT22;55675;49.588;8.640;2023-06-10T08:38:59;27.30;44.70
68691;DHT22;55675;49.588;8.640;2023-06-10T08:41:25;27.40;44.70
68691;DHT22;55675;49.588;8.640;2023-06-10T08:44:20;27.40;44.50
68691;DHT22;55675;49.588;8.640;2023-06-10T08:46:50;27.50;44.70
68691;DHT22;55675;49.588;8.640;2023-06-10T08:49:22;27.50;44.80
68691;DHT22;55675;49.588;8.640;2023-06-10T08:51:55;27.50;44.40
68691;DHT22;55675;49.588;8.640;2023-06-10T08:54:22;27.50;44.30
68691;DHT22;55675;49.588;8.640;2023-06-10T08:56:51;27.60;43.90
68691;DHT22;55675;49.588;8.640;2023-06-10T08:59:18;27.70;44.00
68691;DHT22;55675;49.588;8.640;2023-06-10T09:01:44;27.80;44.60
68691;DHT22;55675;49.588;8.640;2023-06-10T09:04:10;27.80;44.60
68691;DHT22;55675;49.588;8.640;2023-06-10T09:06:35;28.00;43.20
68691;DHT22;55675;49.588;8.640;2023-06-10T09:09:02;28.10;43.40
68691;DHT22;55675;49.588;8.640;2023-06-10T09:11:28;28.30;42.50
68691;DHT22;55675;49.588;8.640;2023-06-10T09:13:54;28.40;42.40
68691;DHT22;55675;49.588;8.640;2023-06-10T09:16:19;28.50;41.50
68691;DHT22;55675;49.588;8.640;2023-06-10T09:18:45;28.60;41.40
68691;DHT22;55675;49.588;8.640;2023-06-10T09:21:11;28.60;41.90
68691;DHT22;55675;49.588;8.640;2023-06-10T09:23:37;28.50;41.50
68691;DHT22;55675;49.588;8.640;2023-06-10T09:26:08;28.60;41.80
68691;DHT22;55675;49.588;8.640;2023-06-10T09:28:35;28.70;42.70
68691;DHT22;55675;49.588;8.640;2023-06-10T09:31:05;28.90;42.10
68691;DHT22;55675;49.588;8.640;2023-06-10T09:33:31;29.00;41.50
68691;DHT22;55675;49.588;8.640;2023-06-10T09:35:56;29.10;40.90
68691;DHT22;55675;49.588;8.640;2023-06-10T09:38:30;29.20;40.50
68691;DHT22;55675;49.588;8.640;2023-06-10T09:40:56;29.40;39.80
68691;DHT22;55675;49.588;8.640;2023-06-10T09:43:21;29.60;39.90
68691;DHT22;55675;49.588;8.640;2023-06-10T09:45:50;29.80;39.90
68691;DHT22;55675;49.588;8.640;2023-06-10T09:48:18;29.90;37.50
68691;DHT22;55675;49.588;8.640;2023-06-10T09:50:44;29.90;38.20
68691;DHT22;55675;49.588;8.640;2023-06-10T09:53:11;29.90;36.00
68691;DHT22;55675;49.588;8.640;2023-06-10T09:55:38;30.00;36.40
68691;DHT22;55675;49.588;8.640;2023-06-10T09:58:04;30.00;36.60
68691;DHT22;55675;49.588;8.640;2023-06-10T10:00:32;30.20;37.50
68691;DHT22;55675;49.588;8.640;2023-06-10T10:02:58;30.30;37.90
68691;DHT22;55675;49.588;8.640;2023-06-10T10:05:24;30.40;37.30
68691;DHT22;55675;49.588;8.640;2023-06-10T10:07:50;30.50;36.50
68691;DHT22;55675;49.588;8.640;2023-06-10T10:10:18;30.60;37.20
68691;DHT22;55675;49.588;8.640;2023-06-10T10:12:48;30.70;36.80
68691;DHT22;55675;49.588;8.640;2023-06-10T10:15:17;30.80;35.70
68691;DHT22;55675;49.588;8.640;2023-06-10T10:17:54;30.80;36.00
68691;DHT22;55675;49.588;8.640;2023-06-10T10:20:26;30.90;34.80
68691;DHT22;55675;49.588;8.640;2023-06-10T10:22:52;31.00;35.50
68691;DHT22;55675;49.588;8.640;2023-06-10T10:25:28;31.10;36.00
68691;DHT22;55675;49.588;8.640;2023-06-10T10:27:59;31.20;35.20
68691;DHT22;55675;49.588;8.640;2023-06-10T10:30:28;31.30;34.90
68691;DHT22;55675;49.588;8.640;2023-06-10T10:32:58;31.40;33.40
68691;DHT22;55675;49.588;8.640;2023-06-10T10:35:25;31.40;33.80
68691;DHT22;55675;49.588;8.640;2023-06-10T10:37:53;31.40;34.40
68691;DHT22;55675;49.588;8.640;2023-06-10T10:40:20;31.50;34.80
68691;DHT22;55675;49.588;8.640;2023-06-10T10:42:50;31.60;34.60
68691;DHT22;55675;49.588;8.640;2023-06-10T10:45:17;31.70;34.40
68691;DHT22;55675;49.588;8.640;2023-06-10T10:47:45;31.70;34.60
68691;DHT22;55675;49.588;8.640;2023-06-10T10:50:18;31.80;33.20
68691;DHT22;55675;49.588;8.640;2023-06-10T10:52:52;31.80;34.10
68691;DHT22;55675;49.588;8.640;2023-06-10T10:55:25;31.90;33.40
68691;DHT22;55675;49.588;8.640;2023-06-10T10:57:59;31.90;33.50
68691;DHT22;55675;49.588;8.640;2023-06-10T11:05:37;32.10;33.20
68691;DHT22;55675;49.588;8.640;2023-06-10T11:08:07;32.10;33.30
68691;DHT22;55675;49.588;8.640;2023-06-10T11:10:51;32.00;32.50
68691;DHT22;55675;49.588;8.640;2023-06-10T11:13:20;31.90;32.80
68691;DHT22;55675;49.588;8.640;2023-06-10T11:15:46;31.80;33.50
68691;DHT22;55675;49.588;8.640;2023-06-10T11:18:24;31.90;34.10
68691;DHT22;55675;49.588;8.640;2023-06-10T11:31:32;32.80;32.40
68691;DHT22;55675;49.588;8.640;2023-06-10T11:34:02;32.90;31.80
68691;DHT22;55675;49.588;8.640;2023-06-10T11:36:32;33.00;32.10
68691;DHT22;55675;49.588;8.640;2023-06-10T11:39:00;33.10;31.70
68691;DHT22;55675;49.588;8.640;2023-06-10T11:41:27;33.20;31.60
68691;DHT22;55675;49.588;8.640;2023-06-10T11:43:55;33.30;31.80
68691;DHT22;55675;49.588;8.640;2023-06-10T11:46:24;33.40;30.60
68691;DHT22;55675;49.588;8.640;2023-06-10T11:48:54;33.50;30.70
68691;DHT22;55675;49.588;8.640;2023-06-10T11:51:19;33.60;30.60
68691;DHT22;55675;49.588;8.640;2023-06-10T11:53:49;33.80;30.00
68691;DHT22;55675;49.588;8.640;2023-06-10T11:56:23;33.90;30.60
68691;DHT22;55675;49.588;8.640;2023-06-10T11:58:56;34.00;30.20
68691;DHT22;55675;49.588;8.640;2023-06-10T12:01:24;34.10;29.90
68691;DHT22;55675;49.588;8.640;2023-06-10T12:04:08;34.10;30.50
68691;DHT22;55675;49.588;8.640;2023-06-10T12:06:49;34.20;30.60
68691;DHT22;55675;49.588;8.640;2023-06-10T12:09:25;34.50;30.60
68691;DHT22;55675;49.588;8.640;2023-06-10T12:12:03;34.80;29.80
68691;DHT22;55675;49.588;8.640;2023-06-10T12:14:57;35.00;29.60
68691;DHT22;55675;49.588;8.640;2023-06-10T12:20:03;34.80;29.00
68691;DHT22;55675;49.588;8.640;2023-06-10T12:22:42;34.70;28.60
68691;DHT22;55675;49.588;8.640;2023-06-10T12:25:08;34.50;28.60
68691;DHT22;55675;49.588;8.640;2023-06-10T12:27:35;34.50;28.70
68691;DHT22;55675;49.588;8.640;2023-06-10T12:30:03;34.60;29.70
68691;DHT22;55675;49.588;8.640;2023-06-10T12:32:43;34.80;29.80
68691;DHT22;55675;49.588;8.640;2023-06-10T12:35:19;34.90;28.70
68691;DHT22;55675;49.588;8.640;2023-06-10T12:37:58;34.70;27.10
68691;DHT22;55675;49.588;8.640;2023-06-10T12:40:37;34.30;26.80
68691;DHT22;55675;49.588;8.640;2023-06-10T12:43:03;34.30;27.60
68691;DHT22;55675;49.588;8.640;2023-06-10T12:45:39;34.60;28.30
68691;DHT22;55675;49.588;8.640;2023-06-10T12:48:19;34.80;28.30
68691;DHT22;55675;49.588;8.640;2023-06-10T12:50:51;35.10;28.20
68691;DHT22;55675;49.588;8.640;2023-06-10T12:53:18;35.30;28.10
68691;DHT22;55675;49.588;8.640;2023-06-10T12:55:45;35.60;27.40
68691;DHT22;55675;49.588;8.640;2023-06-10T12:58:11;35.50;26.60
68691;DHT22;55675;49.588;8.640;2023-06-10T13:00:37;35.50;26.80
68691;DHT22;55675;49.588;8.640;2023-06-10T13:03:03;35.60;27.10
68691;DHT22;55675;49.588;8.640;2023-06-10T13:05:31;35.80;27.30
68691;DHT22;55675;49.588;8.640;2023-06-10T13:07:57;35.90;27.00
68691;DHT22;55675;49.588;8.640;2023-06-10T13:10:23;36.00;26.80
68691;DHT22;55675;49.588;8.640;2023-06-10T13:12:49;36.10;26.90
68691;DHT22;55675;49.588;8.640;2023-06-10T13:15:15;36.30;26.20
68691;DHT22;55675;49.588;8.640;2023-06-10T13:17:43;36.50;26.60
68691;DHT22;55675;49.588;8.640;2023-06-10T13:20:09;36.70;26.50
68691;DHT22;55675;49.588;8.640;2023-06-10T13:22:34;36.80;26.20
68691;DHT22;55675;49.588;8.640;2023-06-10T13:25:03;37.00;25.70
68691;DHT22;55675;49.588;8.640;2023-06-10T13:27:30;37.10;26.00
68691;DHT22;55675;49.588;8.640;2023-06-10T13:29:55;37.40;25.50
68691;DHT22;55675;49.588;8.640;2023-06-10T13:32:21;37.70;25.70
68691;DHT22;55675;49.588;8.640;2023-06-10T13:34:46;37.70;24.90
68691;DHT22;55675;49.588;8.640;2023-06-10T13:37:12;37.50;25.20
68691;DHT22;55675;49.588;8.640;2023-06-10T13:39:38;37.10;24.30
68691;DHT22;55675;49.588;8.640;2023-06-10T13:42:04;36.80;24.80
68691;DHT22;55675;49.588;8.640;2023-06-10T13:44:31;36.60;25.30
68691;DHT22;55675;49.588;8.640;2023-06-10T13:46:59;36.60;25.70
68691;DHT22;55675;49.588;8.640;2023-06-10T13:49:25;36.80;26.30
68691;DHT22;55675;49.588;8.640;2023-06-10T13:51:50;37.10;25.10
68691;DHT22;55675;49.588;8.640;2023-06-10T13:54:16;37.40;25.40
68691;DHT22;55675;49.588;8.640;2023-06-10T13:56:41;39.30;25.10
68691;DHT22;55675;49.588;8.640;2023-06-10T13:59:07;42.80;23.00
68691;DHT22;55675;49.588;8.640;2023-06-10T14:01:33;46.00;20.90
68691;DHT22;55675;49.588;8.640;2023-06-10T14:03:59;48.60;19.00
68691;DHT22;55675;49.588;8.640;2023-06-10T14:06:26;50.70;17.10
68691;DHT22;55675;49.588;8.640;2023-06-10T14:08:51;52.70;15.80
68691;DHT22;55675;49.588;8.640;2023-06-10T14:11:20;54.40;14.50
68691;DHT22;55675;49.588;8.640;2023-06-10T14:13:46;55.70;13.30
68691;DHT22;55675;49.588;8.640;2023-06-10T14:16:11;56.60;13.10
68691;DHT22;55675;49.588;8.640;2023-06-10T14:18:37;57.80;13.00
68691;DHT22;55675;49.588;8.640;2023-06-10T14:21:03;58.80;12.30
68691;DHT22;55675;49.588;8.640;2023-06-10T14:23:28;59.60;12.00
68691;DHT22;55675;49.588;8.640;2023-06-10T14:25:54;60.50;11.40
68691;DHT22;55675;49.588;8.640;2023-06-10T14:28:19;61.20;11.00
68691;DHT22;55675;49.588;8.640;2023-06-10T14:30:45;61.60;10.80
68691;DHT22;55675;49.588;8.640;2023-06-10T14:33:10;62.20;10.70
68691;DHT22;55675;49.588;8.640;2023-06-10T14:35:36;62.80;10.60
68691;DHT22;55675;49.588;8.640;2023-06-10T14:38:01;63.30;10.30
68691;DHT22;55675;49.588;8.640;2023-06-10T14:40:27;63.60;10.10
68691;DHT22;55675;49.588;8.640;2023-06-10T14:42:55;63.60;10.30
68691;DHT22;55675;49.588;8.640;2023-06-10T14:45:20;62.50;9.80
68691;DHT22;55675;49.588;8.640;2023-06-10T14:47:46;61.90;10.00
68691;DHT22;55675;49.588;8.640;2023-06-10T14:50:12;59.40;10.30
68691;DHT22;55675;49.588;8.640;2023-06-10T14:52:38;56.20;10.90
68691;DHT22;55675;49.588;8.640;2023-06-10T14:55:04;52.90;12.20
68691;DHT22;55675;49.588;8.640;2023-06-10T14:57:29;50.80;14.00
68691;DHT22;55675;49.588;8.640;2023-06-10T14:59:55;52.00;13.80
68691;DHT22;55675;49.588;8.640;2023-06-10T15:02:22;54.00;13.50
68691;DHT22;55675;49.588;8.640;2023-06-10T15:04:47;55.80;13.10
68691;DHT22;55675;49.588;8.640;2023-06-10T15:07:13;57.30;12.00
68691;DHT22;55675;49.588;8.640;2023-06-10T15:09:41;58.50;12.00
68691;DHT22;55675;49.588;8.640;2023-06-10T15:12:07;59.30;11.40
68691;DHT22;55675;49.588;8.640;2023-06-10T15:14:33;58.50;11.30
68691;DHT22;55675;49.588;8.640;2023-06-10T15:16:59;59.00;11.20
68691;DHT22;55675;49.588;8.640;2023-06-10T15:19:25;59.30;11.50
68691;DHT22;55675;49.588;8.640;2023-06-10T15:21:51;57.90;10.90
68691;DHT22;55675;49.588;8.640;2023-06-10T15:24:17;57.20;11.40
68691;DHT22;55675;49.588;8.640;2023-06-10T15:26:43;56.30;11.90
68691;DHT22;55675;49.588;8.640;2023-06-10T15:29:08;55.30;12.10
68691;DHT22;55675;49.588;8.640;2023-06-10T15:31:34;56.00;12.40
68691;DHT22;55675;49.588;8.640;2023-06-10T15:34:00;57.10;12.00
68691;DHT22;55675;49.588;8.640;2023-06-10T15:36:26;58.10;12.00
68691;DHT22;55675;49.588;8.640;2023-06-10T15:38:52;58.90;11.50
68691;DHT22;55675;49.588;8.640;2023-06-10T15:41:28;59.30;11.10
68691;DHT22;55675;49.588;8.640;2023-06-10T15:43:54;58.70;11.00
68691;DHT22;55675;49.588;8.640;2023-06-10T15:46:42;58.20;11.60
68691;DHT22;55675;49.588;8.640;2023-06-10T15:49:08;58.30;11.70
68691;DHT22;55675;49.588;8.640;2023-06-10T15:51:33;57.70;11.70
68691;DHT22;55675;49.588;8.640;2023-06-10T15:53:59;57.90;11.70